createdAt,value
2023-10-26T00:00:26.986Z,1.50
2023-10-26T00:02:55.071Z,1.50
2023-10-26T00:05:23.108Z,1.50
2023-10-26T00:07:51.085Z,1.50
2023-10-26T00:10:19.846Z,1.50
2023-10-26T00:12:48.020Z,1.50
2023-10-26T00:15:17.576Z,1.50
2023-10-26T00:17:45.599Z,1.50
2023-10-26T00:20:14.372Z,0.50
2023-10-26T00:22:42.318Z,1.50
2023-10-26T00:25:10.700Z,1.00
2023-10-26T00:27:42.145Z,1.50
2023-10-26T00:30:12.235Z,1.50
2023-10-26T00:32:41.719Z,1.75
2023-10-26T00:35:10.547Z,1.00
2023-10-26T00:37:38.514Z,1.50
2023-10-26T00:40:08.067Z,1.50
2023-10-26T00:42:36.010Z,1.50
2023-10-26T00:45:04.013Z,1.25
2023-10-26T00:47:32.969Z,1.50
2023-10-26T00:50:02.940Z,1.75
2023-10-26T00:52:30.919Z,1.25
2023-10-26T00:54:58.873Z,1.50
2023-10-26T00:57:26.849Z,1.50
2023-10-26T00:59:55.166Z,1.50
2023-10-26T01:02:23.160Z,1.50
2023-10-26T01:04:51.389Z,1.50
2023-10-26T01:07:21.238Z,1.50
2023-10-26T01:09:49.762Z,1.25
2023-10-26T01:12:18.011Z,1.50
2023-10-26T01:14:46.066Z,1.75
2023-10-26T01:17:14.038Z,1.00
2023-10-26T01:19:43.181Z,1.50
2023-10-26T01:22:12.513Z,1.50
2023-10-26T01:24:40.438Z,1.50
2023-10-26T01:27:08.772Z,1.50
2023-10-26T01:29:37.019Z,1.50
2023-10-26T01:32:05.349Z,1.75
2023-10-26T01:34:33.737Z,1.50
2023-10-26T01:37:01.772Z,1.50
2023-10-26T01:39:31.630Z,1.75
2023-10-26T01:41:59.810Z,1.50
2023-10-26T01:44:27.866Z,2.00
2023-10-26T01:46:55.764Z,0.75
2023-10-26T01:49:24.331Z,1.75
2023-10-26T01:51:52.390Z,1.50
2023-10-26T01:54:20.452Z,1.75
2023-10-26T01:56:49.871Z,1.00
2023-10-26T01:59:17.878Z,1.75
2023-10-26T02:01:45.862Z,1.50
2023-10-26T02:04:13.793Z,1.75
2023-10-26T02:06:42.298Z,1.50
2023-10-26T02:09:10.376Z,1.50
2023-10-26T02:11:38.300Z,1.75
2023-10-26T02:14:07.687Z,2.00
2023-10-26T02:16:35.957Z,1.75
2023-10-26T02:19:04.036Z,1.50
2023-10-26T02:21:32.707Z,1.75
2023-10-26T02:24:00.630Z,1.25
2023-10-26T02:26:29.073Z,1.75
2023-10-26T02:28:57.080Z,1.75
2023-10-26T02:31:26.428Z,1.75
2023-10-26T02:33:54.361Z,1.50
2023-10-26T02:36:23.356Z,1.00
2023-10-26T02:38:51.646Z,2.25
2023-10-26T02:41:19.613Z,1.50
2023-10-26T02:43:47.600Z,1.50
2023-10-26T02:46:15.841Z,1.50
2023-10-26T02:48:45.162Z,1.50
2023-10-26T02:51:13.212Z,1.50
2023-10-26T02:53:41.743Z,0.50
2023-10-26T02:56:10.355Z,1.75
2023-10-26T02:58:38.459Z,1.25
2023-10-26T03:01:06.471Z,1.50
2023-10-26T03:03:34.422Z,1.50
2023-10-26T03:06:05.330Z,1.75
2023-10-26T03:08:33.368Z,1.75
2023-10-26T03:11:01.395Z,0.75
2023-10-26T03:13:29.544Z,1.25
2023-10-26T03:15:58.159Z,1.50
2023-10-26T03:19:02.884Z,1.50
2023-10-26T03:21:32.356Z,1.50
2023-10-26T03:24:00.364Z,1.50
2023-10-26T03:26:28.721Z,1.00
2023-10-26T03:28:56.760Z,1.50
2023-10-26T03:31:24.936Z,1.00
2023-10-26T03:33:52.912Z,1.50
2023-10-26T03:36:21.624Z,0.00
2023-10-26T03:38:51.563Z,0.75
2023-10-26T03:41:21.339Z,1.00
2023-10-26T03:43:50.570Z,1.25
2023-10-26T03:46:20.173Z,0.75
2023-10-26T03:48:48.308Z,1.00
2023-10-26T03:51:16.312Z,1.50
2023-10-26T03:53:44.328Z,1.50
2023-10-26T03:56:13.996Z,1.25
2023-10-26T03:58:42.054Z,0.00
2023-10-26T04:01:10.057Z,0.50
2023-10-26T04:03:38.068Z,0.75
2023-10-26T04:06:07.293Z,0.75
2023-10-26T04:08:35.624Z,1.50
2023-10-26T04:11:03.516Z,1.00
2023-10-26T04:13:32.821Z,0.50
2023-10-26T04:16:01.639Z,0.75
2023-10-26T04:18:30.219Z,1.00
2023-10-26T04:20:59.480Z,1.75
2023-10-26T04:23:28.577Z,0.75
2023-10-26T04:25:57.322Z,0.75
2023-10-26T04:28:26.137Z,1.00
2023-10-26T04:30:55.514Z,1.75
2023-10-26T04:33:23.541Z,1.75
2023-10-26T04:35:51.833Z,1.75
2023-10-26T04:38:19.819Z,1.00
2023-10-26T04:40:48.641Z,1.50
2023-10-26T04:43:16.711Z,1.75
2023-10-26T04:45:44.713Z,1.50
2023-10-26T04:48:14.392Z,1.25
2023-10-26T04:50:42.443Z,2.00
2023-10-26T04:53:10.660Z,1.75
2023-10-26T04:55:38.640Z,1.50
2023-10-26T04:58:07.760Z,1.00
2023-10-26T05:00:36.875Z,1.75
2023-10-26T05:03:05.379Z,1.75
2023-10-26T05:05:35.460Z,1.00
2023-10-26T05:08:04.527Z,2.25
2023-10-26T05:10:32.471Z,1.75
2023-10-26T05:13:00.419Z,1.50
2023-10-26T05:15:28.864Z,2.00
2023-10-26T05:17:57.049Z,1.50
2023-10-26T05:20:25.263Z,2.00
2023-10-26T05:22:55.366Z,1.50
2023-10-26T05:25:24.638Z,1.75
2023-10-26T05:27:54.344Z,2.25
2023-10-26T05:30:22.592Z,1.75
2023-10-26T05:32:50.624Z,2.75
2023-10-26T05:35:20.269Z,2.25
2023-10-26T05:37:48.403Z,1.75
2023-10-26T05:40:17.796Z,1.00
2023-10-26T05:42:45.717Z,1.75
2023-10-26T05:45:14.384Z,1.75
2023-10-26T05:47:42.686Z,1.75
2023-10-26T05:50:11.948Z,1.25
2023-10-26T05:52:39.964Z,1.75
2023-10-26T05:55:08.913Z,1.00
2023-10-26T05:57:38.362Z,1.75
2023-10-26T06:00:10.993Z,2.00
2023-10-26T06:02:39.181Z,0.75
2023-10-26T06:05:07.855Z,1.00
2023-10-26T06:07:35.885Z,2.00
2023-10-26T06:10:04.199Z,1.75
2023-10-26T06:12:32.434Z,1.75
2023-10-26T06:15:02.301Z,2.00
2023-10-26T06:17:30.259Z,2.00
2023-10-26T06:19:58.228Z,1.75
2023-10-26T06:22:26.282Z,1.75
2023-10-26T06:24:54.487Z,1.75
2023-10-26T06:27:22.472Z,1.75
2023-10-26T06:29:53.569Z,1.75
2023-10-26T06:32:22.984Z,1.75
2023-10-26T06:34:51.944Z,1.75
2023-10-26T06:37:19.960Z,1.75
2023-10-26T06:39:47.882Z,1.75
2023-10-26T06:42:15.960Z,1.75
2023-10-26T06:44:44.515Z,1.75
2023-10-26T06:47:12.650Z,1.00
2023-10-26T06:49:45.209Z,1.75
2023-10-26T06:52:13.277Z,1.50
2023-10-26T06:54:41.589Z,1.75
2023-10-26T06:57:09.669Z,1.75
2023-10-26T06:59:37.670Z,1.75
2023-10-26T07:02:09.270Z,2.00
2023-10-26T07:04:41.734Z,0.00
2023-10-26T07:07:10.105Z,1.25
2023-10-26T07:09:38.512Z,2.00
2023-10-26T07:12:07.396Z,1.75
2023-10-26T07:14:35.829Z,2.00
2023-10-26T07:17:04.054Z,1.50
2023-10-26T07:19:32.032Z,1.75
2023-10-26T07:22:01.328Z,1.75
2023-10-26T07:24:30.575Z,1.00
2023-10-26T07:26:59.443Z,1.00
2023-10-26T07:29:27.461Z,1.00
2023-10-26T07:31:56.040Z,1.00
2023-10-26T07:34:24.165Z,1.50
2023-10-26T07:36:52.419Z,0.00
2023-10-26T07:39:47.447Z,1.75
2023-10-26T07:42:11.325Z,1.25
2023-10-26T07:44:39.770Z,1.00
2023-10-26T07:47:10.049Z,1.00
2023-10-26T07:49:38.434Z,1.00
2023-10-26T07:52:06.621Z,1.00
2023-10-26T07:54:36.044Z,1.00
2023-10-26T07:57:04.383Z,1.75
2023-10-26T07:59:32.433Z,1.00
2023-10-26T08:02:00.981Z,2.00
2023-10-26T08:04:33.642Z,1.00
2023-10-26T08:07:02.403Z,1.00
2023-10-26T08:09:34.232Z,1.75
2023-10-26T08:12:04.222Z,1.00
2023-10-26T08:16:09.084Z,1.75
2023-10-26T08:17:20.434Z,1.50
2023-10-26T08:19:48.745Z,1.00
2023-10-26T08:22:16.998Z,1.25
2023-10-26T08:24:45.467Z,1.00
2023-10-26T08:27:14.934Z,1.00
2023-10-26T08:29:43.000Z,1.00
2023-10-26T08:32:11.045Z,1.75
2023-10-26T08:34:39.988Z,1.75
2023-10-26T08:37:13.680Z,1.50
2023-10-26T08:39:42.456Z,1.50
2023-10-26T08:42:11.145Z,2.25
2023-10-26T08:44:43.607Z,2.00
2023-10-26T08:47:15.758Z,1.50
2023-10-26T08:49:46.109Z,1.00
2023-10-26T08:52:18.726Z,1.50
2023-10-26T08:54:48.376Z,2.50
2023-10-26T08:57:16.412Z,1.00
2023-10-26T08:59:45.977Z,1.25
2023-10-26T09:02:14.026Z,1.00
2023-10-26T09:05:02.590Z,1.75
2023-10-26T09:07:30.653Z,1.25
2023-10-26T09:09:58.830Z,1.00
2023-10-26T09:12:27.258Z,2.00
2023-10-26T09:15:03.368Z,1.00
2023-10-26T09:17:31.788Z,1.25
2023-10-26T09:20:00.169Z,1.75
2023-10-26T09:22:38.564Z,1.00
2023-10-26T09:25:10.143Z,1.00
2023-10-26T09:27:38.088Z,1.00
2023-10-26T09:30:11.616Z,1.75
2023-10-26T09:32:40.184Z,1.00
2023-10-26T09:35:09.367Z,1.00
2023-10-26T09:37:51.810Z,1.00
2023-10-26T09:40:20.369Z,0.75
2023-10-26T09:42:49.021Z,2.00
2023-10-26T09:45:18.878Z,1.75
2023-10-26T09:47:47.134Z,1.00
2023-10-26T09:50:15.450Z,1.00
2023-10-26T09:52:44.180Z,1.75
2023-10-26T09:55:12.997Z,0.25
2023-10-26T09:57:44.967Z,1.75
2023-10-26T10:00:14.640Z,1.00
2023-10-26T10:02:44.077Z,1.00
2023-10-26T10:05:39.555Z,1.50
2023-10-26T10:08:07.800Z,2.25
2023-10-26T10:10:36.588Z,1.25
2023-10-26T10:13:04.566Z,1.00
2023-10-26T10:15:42.370Z,1.00
2023-10-26T10:18:12.135Z,1.75
2023-10-26T10:20:41.702Z,1.50
2023-10-26T10:23:10.194Z,1.50
2023-10-26T10:26:16.156Z,1.75
2023-10-26T10:28:53.091Z,1.50
2023-10-26T10:31:25.640Z,1.50
2023-10-26T10:34:07.176Z,2.50
2023-10-26T10:37:15.801Z,1.75
2023-10-26T10:40:13.931Z,1.50
2023-10-26T10:42:42.867Z,1.50
2023-10-26T10:45:14.370Z,1.50
2023-10-26T10:47:42.838Z,1.50
2023-10-26T10:50:19.149Z,1.50
2023-10-26T10:52:47.195Z,0.50
2023-10-26T10:55:20.420Z,1.75
2023-10-26T10:57:56.320Z,1.25
2023-10-26T11:00:24.763Z,0.75
2023-10-26T11:02:57.871Z,1.50
2023-10-26T11:05:38.651Z,1.50
2023-10-26T11:08:07.019Z,1.50
2023-10-26T11:10:34.969Z,1.50
2023-10-26T11:13:02.936Z,0.50
2023-10-26T11:15:34.742Z,1.00
2023-10-26T11:18:03.210Z,1.00
2023-10-26T11:20:42.480Z,1.00
2023-10-26T11:23:11.169Z,1.50
2023-10-26T11:25:39.552Z,1.00
2023-10-26T11:28:07.851Z,1.00
2023-10-26T11:30:47.363Z,1.00
2023-10-26T11:33:31.124Z,1.50
2023-10-26T11:36:00.466Z,1.25
2023-10-26T11:38:28.709Z,1.00
2023-10-26T11:40:57.104Z,1.00
2023-10-26T11:43:34.395Z,1.00
2023-10-26T11:46:04.495Z,1.00
2023-10-26T11:48:34.373Z,1.50
2023-10-26T11:51:07.748Z,2.25
2023-10-26T11:53:36.654Z,0.25
2023-10-26T11:56:05.637Z,0.00
2023-10-26T11:58:34.569Z,2.00
2023-10-26T12:01:02.595Z,1.00
2023-10-26T12:03:30.669Z,1.75
2023-10-26T12:05:59.261Z,1.75
2023-10-26T12:08:28.694Z,1.50
2023-10-26T12:10:56.668Z,2.00
2023-10-26T12:13:24.661Z,1.00
2023-10-26T12:15:53.209Z,2.00
2023-10-26T12:18:21.404Z,1.00
2023-10-26T12:20:49.388Z,1.75
2023-10-26T12:23:17.348Z,1.75
2023-10-26T12:25:47.926Z,1.75
2023-10-26T12:28:20.907Z,2.00
2023-10-26T12:30:52.280Z,1.50
2023-10-26T12:33:20.528Z,2.50
2023-10-26T12:35:48.763Z,1.75
2023-10-26T12:38:16.724Z,2.50
2023-10-26T12:40:46.049Z,1.00
2023-10-26T12:43:14.258Z,1.75
2023-10-26T12:45:42.433Z,2.50
2023-10-26T12:48:10.433Z,1.75
2023-10-26T12:50:38.687Z,1.50
2023-10-26T12:53:06.923Z,1.75
2023-10-26T12:55:35.696Z,2.25
2023-10-26T12:58:05.393Z,1.50
2023-10-26T13:00:33.505Z,2.75
2023-10-26T13:03:01.695Z,2.50
2023-10-26T13:05:29.973Z,1.50
2023-10-26T13:07:58.323Z,2.00
2023-10-26T13:10:26.678Z,2.75
2023-10-26T13:12:54.647Z,2.75
2023-10-26T13:15:24.419Z,2.75
2023-10-26T13:17:52.472Z,3.75
2023-10-26T13:20:20.644Z,3.00
2023-10-26T13:22:49.194Z,3.00
2023-10-26T13:25:17.330Z,2.75
2023-10-26T13:27:45.352Z,2.50
2023-10-26T13:30:15.660Z,2.50
2023-10-26T13:32:45.514Z,2.75
2023-10-26T13:35:13.595Z,3.50
2023-10-26T13:37:41.691Z,2.75
2023-10-26T13:40:10.933Z,2.75
2023-10-26T13:42:38.980Z,2.75
2023-10-26T13:45:10.271Z,2.50
2023-10-26T13:47:38.529Z,2.50
2023-10-26T13:50:09.078Z,2.50
2023-10-26T13:52:37.108Z,3.00
2023-10-26T13:55:06.623Z,2.50
2023-10-26T13:57:34.702Z,2.75
2023-10-26T14:00:09.477Z,2.50
2023-10-26T14:02:37.701Z,3.75
2023-10-26T14:05:29.549Z,2.75
2023-10-26T14:07:58.363Z,3.00
2023-10-26T14:10:26.602Z,2.00
2023-10-26T14:12:54.686Z,2.75
2023-10-26T14:15:23.087Z,2.75
2023-10-26T14:17:51.225Z,2.75
2023-10-26T14:20:20.694Z,3.00
2023-10-26T14:22:49.191Z,2.25
2023-10-26T14:25:17.683Z,2.50
2023-10-26T14:27:45.611Z,2.75
2023-10-26T14:30:14.195Z,2.75
2023-10-26T14:32:42.278Z,2.50
2023-10-26T14:35:10.896Z,2.00
2023-10-26T14:37:40.558Z,3.25
2023-10-26T14:40:09.859Z,2.75
2023-10-26T14:42:38.337Z,2.50
2023-10-26T14:45:10.138Z,2.50
2023-10-26T14:47:38.233Z,2.75
2023-10-26T14:50:07.190Z,2.75
2023-10-26T14:52:35.208Z,2.75
2023-10-26T14:55:05.164Z,2.75
2023-10-26T14:57:33.370Z,3.00
2023-10-26T15:00:01.613Z,2.75
2023-10-26T15:02:29.840Z,2.50
2023-10-26T15:04:57.848Z,2.75
2023-10-26T15:07:26.676Z,2.50
2023-10-26T15:10:23.267Z,2.75
2023-10-26T15:12:44.104Z,2.25
2023-10-26T15:15:12.486Z,2.75
2023-10-26T15:17:40.562Z,1.00
2023-10-26T15:20:10.662Z,2.75
2023-10-26T15:22:38.659Z,2.50
2023-10-26T15:25:07.381Z,2.75
2023-10-26T15:27:35.500Z,2.75
2023-10-26T15:30:05.637Z,3.75
2023-10-26T15:32:33.574Z,2.75
2023-10-26T15:35:02.006Z,2.00
2023-10-26T15:37:30.282Z,2.00
2023-10-26T15:39:59.224Z,2.50
2023-10-26T15:42:27.282Z,2.75
2023-10-26T15:44:55.939Z,1.75
2023-10-26T15:47:25.830Z,2.75
2023-10-26T15:49:53.891Z,2.75
2023-10-26T15:52:22.106Z,2.00
2023-10-26T15:54:50.690Z,2.25
2023-10-26T15:57:20.228Z,1.75
2023-10-26T15:59:48.282Z,1.75
2023-10-26T16:02:16.333Z,2.00
2023-10-26T16:04:46.145Z,1.50
2023-10-26T16:07:14.400Z,2.00
2023-10-26T16:09:42.626Z,2.50
2023-10-26T16:12:10.961Z,2.50
2023-10-26T16:14:39.151Z,2.50
2023-10-26T16:17:07.151Z,1.75
2023-10-26T16:19:35.135Z,2.00
2023-10-26T16:22:04.889Z,2.25
2023-10-26T16:24:32.881Z,2.75
2023-10-26T16:27:01.242Z,2.50
2023-10-26T16:29:29.478Z,2.00
2023-10-26T16:31:57.706Z,2.50
2023-10-26T16:34:25.661Z,2.50
2023-10-26T16:36:53.720Z,1.50
2023-10-26T16:39:23.138Z,1.50
2023-10-26T16:41:51.272Z,1.50
2023-10-26T16:44:19.235Z,1.00
2023-10-26T16:46:47.943Z,1.50
2023-10-26T16:49:16.248Z,1.75
2023-10-26T16:51:44.226Z,2.25
2023-10-26T16:54:12.369Z,1.50
2023-10-26T16:56:41.728Z,1.50
2023-10-26T16:59:09.677Z,1.50
2023-10-26T17:01:37.732Z,1.50
2023-10-26T17:04:06.205Z,1.75
2023-10-26T17:06:34.864Z,1.75
2023-10-26T17:09:02.821Z,2.50
2023-10-26T17:11:30.824Z,1.50
2023-10-26T17:14:00.672Z,1.75
2023-10-26T17:16:28.952Z,2.50
2023-10-26T17:18:57.669Z,1.50
2023-10-26T17:21:26.354Z,1.50
2023-10-26T17:23:54.549Z,2.50
2023-10-26T17:26:22.504Z,2.50
2023-10-26T17:28:50.443Z,2.50
2023-10-26T17:31:19.926Z,2.75
2023-10-26T17:33:48.040Z,1.75
2023-10-26T17:36:16.110Z,1.50
2023-10-26T17:38:44.032Z,2.25
2023-10-26T17:41:13.184Z,2.00
2023-10-26T17:43:41.354Z,2.00
2023-10-26T17:46:09.708Z,1.75
2023-10-26T17:48:39.242Z,2.25
2023-10-26T17:51:09.152Z,1.50
2023-10-26T17:53:39.125Z,2.00
2023-10-26T17:56:13.250Z,1.75
2023-10-26T17:58:41.699Z,1.75
2023-10-26T18:01:11.334Z,2.50
2023-10-26T18:03:41.190Z,2.25
2023-10-26T18:06:09.495Z,1.75
2023-10-26T18:08:38.257Z,3.00
2023-10-26T18:11:06.411Z,2.50
2023-10-26T18:13:34.975Z,2.75
2023-10-26T18:16:06.191Z,1.50
2023-10-26T18:18:34.373Z,1.75
2023-10-26T18:21:04.233Z,2.75
2023-10-26T18:23:32.613Z,2.50
2023-10-26T18:26:04.240Z,2.75
2023-10-26T18:28:32.218Z,2.75
2023-10-26T18:31:04.128Z,2.25
2023-10-26T18:33:32.327Z,2.00
2023-10-26T18:36:03.537Z,2.50
2023-10-26T18:38:31.898Z,2.50
2023-10-26T18:40:59.968Z,1.75
2023-10-26T18:43:28.575Z,2.75
2023-10-26T18:46:01.107Z,2.75
2023-10-26T18:48:30.806Z,2.50
2023-10-26T18:50:58.866Z,1.75
2023-10-26T18:53:28.229Z,2.75
2023-10-26T18:55:56.404Z,2.75
2023-10-26T18:58:25.601Z,2.00
2023-10-26T19:00:53.833Z,2.50
2023-10-26T19:03:23.750Z,1.75
2023-10-26T19:05:52.594Z,2.50
2023-10-26T19:08:20.856Z,1.75
2023-10-26T19:10:50.609Z,2.50
2023-10-26T19:13:19.006Z,2.75
2023-10-26T19:15:47.569Z,3.00
2023-10-26T19:18:15.772Z,2.75
2023-10-26T19:20:43.961Z,2.25
2023-10-26T19:23:12.423Z,2.50
2023-10-26T19:25:40.665Z,2.50
2023-10-26T19:28:10.501Z,3.00
2023-10-26T19:30:38.843Z,2.00
2023-10-26T19:33:07.178Z,2.75
2023-10-26T19:35:35.522Z,2.00
2023-10-26T19:38:03.524Z,2.50
2023-10-26T19:40:31.662Z,2.75
2023-10-26T19:42:59.642Z,2.50
2023-10-26T19:45:29.572Z,2.75
2023-10-26T19:47:59.725Z,2.75
2023-10-26T19:50:31.419Z,3.00
2023-10-26T19:53:02.316Z,2.75
2023-10-26T19:55:34.176Z,2.75
2023-10-26T19:58:05.398Z,2.00
2023-10-26T20:00:37.048Z,2.00
2023-10-26T20:03:08.443Z,2.00
2023-10-26T20:05:39.596Z,2.75
2023-10-26T20:08:10.047Z,1.00
2023-10-26T20:10:45.467Z,2.00
2023-10-26T20:13:19.416Z,1.75
2023-10-26T20:15:51.008Z,1.50
2023-10-26T20:18:21.340Z,2.50
2023-10-26T20:20:51.188Z,2.00
2023-10-26T20:23:21.330Z,1.50
2023-10-26T20:25:51.859Z,3.00
2023-10-26T20:28:21.525Z,2.00
2023-10-26T20:30:52.779Z,2.00
2023-10-26T20:33:22.927Z,2.75
2023-10-26T20:35:53.478Z,2.75
2023-10-26T20:38:23.346Z,1.75
2023-10-26T20:40:52.414Z,2.75
2023-10-26T20:43:21.440Z,1.75
2023-10-26T20:45:58.881Z,2.50
2023-10-26T20:48:27.086Z,2.25
2023-10-26T20:50:57.973Z,2.00
2023-10-26T20:53:28.036Z,2.00
2023-10-26T20:55:59.239Z,2.00
2023-10-26T20:58:27.242Z,2.00
2023-10-26T21:00:55.704Z,2.00
2023-10-26T21:03:25.441Z,2.75
2023-10-26T21:05:53.475Z,2.50
2023-10-26T21:08:22.177Z,2.00
2023-10-26T21:10:50.188Z,2.75
2023-10-26T21:13:18.627Z,2.00
2023-10-26T21:15:47.705Z,2.75
2023-10-26T21:18:16.055Z,2.50
2023-10-26T21:20:45.763Z,2.50
2023-10-26T21:23:13.823Z,2.75
2023-10-26T21:25:42.058Z,2.00
2023-10-26T21:28:10.185Z,2.25
2023-10-26T21:30:38.228Z,2.50
2023-10-26T21:33:06.290Z,2.75
2023-10-26T21:35:37.195Z,1.75
2023-10-26T21:38:07.796Z,2.75
2023-10-26T21:40:37.307Z,2.75
2023-10-26T21:43:05.566Z,2.75
2023-10-26T21:45:36.972Z,2.00
2023-10-26T21:48:05.313Z,2.00
2023-10-26T21:50:34.132Z,3.50
2023-10-26T21:53:02.156Z,2.50
2023-10-26T21:55:32.793Z,3.75
2023-10-26T21:58:00.860Z,2.75
2023-10-26T22:00:29.579Z,2.75
2023-10-26T22:02:57.770Z,2.00
2023-10-26T22:05:27.139Z,2.75
2023-10-26T22:07:55.307Z,3.00
2023-10-26T22:10:23.373Z,2.75
2023-10-26T22:12:53.242Z,2.50
2023-10-26T22:15:21.988Z,2.75
2023-10-26T22:17:50.698Z,3.00
2023-10-26T22:20:18.793Z,2.75
2023-10-26T22:22:46.841Z,3.25
2023-10-26T22:25:15.121Z,3.25
2023-10-26T22:27:43.436Z,3.00
2023-10-26T22:30:14.289Z,3.25
2023-10-26T22:32:43.993Z,3.00
2023-10-26T22:35:12.873Z,2.00
2023-10-26T22:37:40.926Z,3.00
2023-10-26T22:40:10.409Z,2.75
2023-10-26T22:42:38.977Z,3.75
2023-10-26T22:45:11.029Z,3.75
2023-10-26T22:47:40.405Z,2.50
2023-10-26T22:50:09.573Z,3.75
2023-10-26T22:52:37.852Z,3.75
2023-10-26T22:55:07.749Z,2.75
2023-10-26T22:57:35.741Z,2.00
2023-10-26T23:00:04.118Z,2.25
2023-10-26T23:02:32.134Z,2.00
2023-10-26T23:05:02.658Z,3.50
2023-10-26T23:07:30.836Z,2.75
2023-10-26T23:10:01.351Z,2.00
2023-10-26T23:12:29.330Z,2.75
2023-10-26T23:14:57.573Z,3.00
2023-10-26T23:17:25.613Z,2.75
2023-10-26T23:19:53.613Z,2.50
2023-10-26T23:22:23.062Z,3.00
2023-10-26T23:24:51.591Z,3.50
2023-10-26T23:27:19.589Z,3.00
2023-10-26T23:29:47.641Z,3.50
2023-10-26T23:32:15.580Z,2.75
2023-10-26T23:34:44.318Z,2.75
2023-10-26T23:37:12.442Z,2.75
2023-10-26T23:39:41.795Z,2.75
2023-10-26T23:42:10.094Z,2.00
2023-10-26T23:44:38.470Z,3.00
2023-10-26T23:47:07.083Z,2.00
2023-10-26T23:49:35.169Z,2.75
2023-10-26T23:52:03.346Z,4.00
2023-10-26T23:54:31.484Z,2.00
2023-10-26T23:57:01.140Z,2.75
2023-10-26T23:59:30.867Z,2.75
